This is the latest recevied weather packets stored in our database for station/object WX4FUN-13. If no packets are shown the sender has not sent any weather packets the latest 1 day(s).
| Time | Temp. | Humidity | Pressure | Rain* | Wind** | Luminosity | Snow |
|---|---|---|---|---|---|---|---|
| 1778001239 | 26.11° C | 46% | 1008.4 hPa | 0 mm | 0.89 m/s, 314° | 889 W/m² | - |
| 1778000639 | 25.56° C | 47% | 1008.4 hPa | 0 mm | 1.34 m/s, 301° | 895 W/m² | - |
| 1778000038 | 25.56° C | 46% | 1008.6 hPa | 0 mm | 1.34 m/s, 235° | 899 W/m² | - |
| 1777999435 | 25° C | 48% | 1008.8 hPa | 0 mm | 1.34 m/s, 262° | 894 W/m² | - |
| 1777998835 | 24.44° C | 50% | 1009 hPa | 0 mm | 0.89 m/s, 219° | 874 W/m² | - |
| 1777998234 | 24.44° C | 50% | 1009.2 hPa | 0 mm | 0.89 m/s, 201° | 894 W/m² | - |
| 1777997634 | 23.33° C | 52% | 1009.4 hPa | 0 mm | 1.34 m/s, 237° | 893 W/m² | - |
| 1777997033 | 23.33° C | 54% | 1009.4 hPa | 0 mm | 0.89 m/s, 234° | 299 W/m² | - |
| 1777996435 | 22.78° C | 55% | 1009.6 hPa | 0 mm | 0.89 m/s, 239° | 119 W/m² | - |
| 1777995833 | 22.22° C | 56% | 1009.7 hPa | 0 mm | 0.89 m/s, 231° | 773 W/m² | - |
| 1777995233 | 22.22° C | 56% | 1010 hPa | 0 mm | 0.89 m/s, 230° | 839 W/m² | - |
| 1777994633 | 21.67° C | 58% | 1010.3 hPa | 0 mm | 0.89 m/s, 260° | 828 W/m² | - |
| 1777994033 | 21.11° C | 58% | 1010.3 hPa | 0 mm | 0.89 m/s, 269° | 803 W/m² | - |
| 1777993429 | 21.11° C | 60% | 1010.4 hPa | 0 mm | 0.89 m/s, 227° | 789 W/m² | - |
| 1777992830 | 20° C | 61% | 1010.5 hPa | 0 mm | 0.45 m/s, 223° | 780 W/m² | - |
| 1777992229 | 19.44° C | 63% | 1010.7 hPa | 0 mm | 0.89 m/s, 285° | 762 W/m² | - |
| 1777991628 | 18.89° C | 66% | 1010.7 hPa | 0 mm | 0.89 m/s, 251° | 758 W/m² | - |
| 1777991028 | 19.44° C | 64% | 1010.7 hPa | 0 mm | 0.45 m/s, 248° | 326 W/m² | - |
| 1777990428 | 20° C | 63% | 1010.5 hPa | 0 mm | 0.45 m/s, 259° | 372 W/m² | - |
| 1777989824 | 18.33° C | 66% | 1010.5 hPa | 0 mm | 0.45 m/s, 225° | 562 W/m² | - |
| 1777989224 | 17.78° C | 68% | 1010.7 hPa | 0 mm | 0.45 m/s, 225° | 448 W/m² | - |
| 1777988626 | 17.22° C | 70% | 1010.6 hPa | 0 mm | 0.45 m/s, 301° | 271 W/m² | - |
| 1777988025 | 16.67° C | 72% | 1010.7 hPa | 0 mm | 0.45 m/s, 270° | 303 W/m² | - |
| 1777987425 | 16.67° C | 73% | 1010.3 hPa | 0 mm | 0.45 m/s, 0° | 89 W/m² | - |
| 1777986825 | 17.22° C | 71% | 1010.9 hPa | 0 mm | 0.45 m/s, 248° | 113 W/m² | - |
* Rain latest hour (hover to see other rain measurements)
** Current wind speed in m/s (hover to see current wind gust speed)